Terminal Aerodrome Forecast
Issued by NWS

Home | Current Version | Previous Version | Text Only | Print | Product List | Glossary On
Versions: 1 2 3 4 5 6 7 8 9 10 11 12 13 14 15 16 17 18 19 20 21 22
075
FTUS41 KRLX 231737
TAFCKB
TAF
KCKB 231737Z 2318/2418 12011G17KT P6SM +SHRA OVC070
     FM232100 14013G20KT P6SM OVC040
      TEMPO 2321/2324 3SM +SHRA BKN025
     FM240000 18011G17KT P6SM OVC025
      TEMPO 2400/2402 3SM +SHRA OVC025
     FM240200 20010KT 5SM -SHRA OVC025
     FM240500 21010KT 6SM BR OVC030
     FM240900 21008KT P6SM BKN015
     FM241500 22009KT P6SM BKN040=

USA.gov is the U.S. government's official web portal to all federal, state and local government web resources and services.